sensor_id;sensor_type;location;lat;lon;timestamp;pressure;altitude;pressure_sealevel;temperature;humidity
77019;BME280;66044;53.142;17.962;2023-09-18T00:00:17;101127.94;;;17.25;69.21
77019;BME280;66044;53.142;17.962;2023-09-18T00:03:03;101129.20;;;17.23;69.42
77019;BME280;66044;53.142;17.962;2023-09-18T00:05:30;101129.79;;;17.21;69.58
77019;BME280;66044;53.142;17.962;2023-09-18T00:07:57;101137.33;;;17.18;69.54
77019;BME280;66044;53.142;17.962;2023-09-18T00:10:25;101130.83;;;17.15;69.63
77019;BME280;66044;53.142;17.962;2023-09-18T00:12:52;101131.80;;;17.12;69.76
77019;BME280;66044;53.142;17.962;2023-09-18T00:15:18;101131.94;;;17.09;70.07
77019;BME280;66044;53.142;17.962;2023-09-18T00:17:45;101130.97;;;17.06;70.03
77019;BME280;66044;53.142;17.962;2023-09-18T00:20:11;101127.88;;;17.02;70.05
77019;BME280;66044;53.142;17.962;2023-09-18T00:22:38;101128.50;;;16.99;70.27
77019;BME280;66044;53.142;17.962;2023-09-18T00:25:04;101122.48;;;16.96;70.40
77019;BME280;66044;53.142;17.962;2023-09-18T00:27:31;101118.00;;;16.94;70.43
77019;BME280;66044;53.142;17.962;2023-09-18T00:29:59;101112.86;;;16.88;70.44
77019;BME280;66044;53.142;17.962;2023-09-18T00:32:25;101115.45;;;16.86;70.66
77019;BME280;66044;53.142;17.962;2023-09-18T00:34:51;101118.43;;;16.83;70.56
77019;BME280;66044;53.142;17.962;2023-09-18T00:37:18;101115.57;;;16.80;70.60
77019;BME280;66044;53.142;17.962;2023-09-18T00:39:45;101111.95;;;16.79;70.80
77019;BME280;66044;53.142;17.962;2023-09-18T00:42:11;101109.52;;;16.76;71.07
77019;BME280;66044;53.142;17.962;2023-09-18T00:44:44;101104.66;;;16.74;71.13
77019;BME280;66044;53.142;17.962;2023-09-18T00:47:12;101106.97;;;16.70;71.26
77019;BME280;66044;53.142;17.962;2023-09-18T00:49:41;101103.18;;;16.66;71.56
77019;BME280;66044;53.142;17.962;2023-09-18T00:52:10;101105.52;;;16.63;71.73
77019;BME280;66044;53.142;17.962;2023-09-18T00:54:38;101104.39;;;16.61;71.85
77019;BME280;66044;53.142;17.962;2023-09-18T00:57:08;101101.85;;;16.59;71.67
77019;BME280;66044;53.142;17.962;2023-09-18T00:59:36;101105.67;;;16.57;71.65
77019;BME280;66044;53.142;17.962;2023-09-18T01:02:03;101105.73;;;16.56;71.81
77019;BME280;66044;53.142;17.962;2023-09-18T01:04:30;101101.98;;;16.55;71.83
77019;BME280;66044;53.142;17.962;2023-09-18T01:06:59;101103.83;;;16.54;71.78
77019;BME280;66044;53.142;17.962;2023-09-18T01:09:32;101100.63;;;16.53;71.77
77019;BME280;66044;53.142;17.962;2023-09-18T01:14:42;101096.02;;;16.51;71.98
77019;BME280;66044;53.142;17.962;2023-09-18T01:17:12;101099.70;;;16.50;72.12
77019;BME280;66044;53.142;17.962;2023-09-18T01:19:42;101096.47;;;16.47;72.31
77019;BME280;66044;53.142;17.962;2023-09-18T01:22:12;101094.81;;;16.45;72.48
77019;BME280;66044;53.142;17.962;2023-09-18T01:24:39;101094.69;;;16.44;72.55
77019;BME280;66044;53.142;17.962;2023-09-18T01:27:11;101092.86;;;16.42;72.60
77019;BME280;66044;53.142;17.962;2023-09-18T01:29:39;101096.60;;;16.40;72.41
77019;BME280;66044;53.142;17.962;2023-09-18T01:32:06;101098.02;;;16.37;72.41
77019;BME280;66044;53.142;17.962;2023-09-18T01:34:38;101100.60;;;16.34;72.29
77019;BME280;66044;53.142;17.962;2023-09-18T01:37:10;101101.33;;;16.33;72.36
77019;BME280;66044;53.142;17.962;2023-09-18T01:39:38;101101.00;;;16.32;72.39
77019;BME280;66044;53.142;17.962;2023-09-18T01:42:06;101103.33;;;16.31;72.43
77019;BME280;66044;53.142;17.962;2023-09-18T01:44:36;101100.43;;;16.30;72.54
77019;BME280;66044;53.142;17.962;2023-09-18T01:47:07;101100.91;;;16.28;72.55
77019;BME280;66044;53.142;17.962;2023-09-18T01:49:36;101097.58;;;16.24;72.42
77019;BME280;66044;53.142;17.962;2023-09-18T01:52:04;101100.45;;;16.21;72.47
77019;BME280;66044;53.142;17.962;2023-09-18T01:54:32;101096.61;;;16.19;72.62
77019;BME280;66044;53.142;17.962;2023-09-18T01:57:00;101091.98;;;16.16;72.49
77019;BME280;66044;53.142;17.962;2023-09-18T01:59:26;101090.31;;;16.14;72.68
77019;BME280;66044;53.142;17.962;2023-09-18T02:01:53;101094.07;;;16.13;72.70
77019;BME280;66044;53.142;17.962;2023-09-18T02:04:20;101089.98;;;16.11;72.53
77019;BME280;66044;53.142;17.962;2023-09-18T02:06:49;101088.16;;;16.08;72.60
77019;BME280;66044;53.142;17.962;2023-09-18T02:09:17;101089.29;;;16.07;72.52
77019;BME280;66044;53.142;17.962;2023-09-18T02:11:47;101087.74;;;16.04;72.56
77019;BME280;66044;53.142;17.962;2023-09-18T02:14:14;101088.64;;;16.03;72.68
77019;BME280;66044;53.142;17.962;2023-09-18T02:16:43;101088.36;;;16.00;72.75
77019;BME280;66044;53.142;17.962;2023-09-18T02:19:11;101081.57;;;15.98;72.69
77019;BME280;66044;53.142;17.962;2023-09-18T02:21:39;101082.77;;;15.97;72.70
77019;BME280;66044;53.142;17.962;2023-09-18T02:24:06;101080.25;;;15.95;72.84
77019;BME280;66044;53.142;17.962;2023-09-18T02:26:34;101077.44;;;15.93;72.90
77019;BME280;66044;53.142;17.962;2023-09-18T02:29:08;101077.31;;;15.91;73.02
77019;BME280;66044;53.142;17.962;2023-09-18T02:31:38;101067.44;;;15.90;73.01
77019;BME280;66044;53.142;17.962;2023-09-18T02:34:05;101069.08;;;15.87;73.11
77019;BME280;66044;53.142;17.962;2023-09-18T02:36:32;101069.25;;;15.84;73.19
77019;BME280;66044;53.142;17.962;2023-09-18T02:38:58;101071.01;;;15.80;73.28
77019;BME280;66044;53.142;17.962;2023-09-18T02:41:25;101068.02;;;15.77;73.25
77019;BME280;66044;53.142;17.962;2023-09-18T02:43:51;101065.55;;;15.75;73.22
77019;BME280;66044;53.142;17.962;2023-09-18T02:46:17;101067.42;;;15.73;73.28
77019;BME280;66044;53.142;17.962;2023-09-18T02:48:44;101071.02;;;15.70;73.29
77019;BME280;66044;53.142;17.962;2023-09-18T02:51:11;101070.27;;;15.69;73.27
77019;BME280;66044;53.142;17.962;2023-09-18T02:53:37;101068.52;;;15.67;73.33
77019;BME280;66044;53.142;17.962;2023-09-18T02:56:03;101065.95;;;15.66;73.24
77019;BME280;66044;53.142;17.962;2023-09-18T02:58:30;101062.73;;;15.65;73.50
77019;BME280;66044;53.142;17.962;2023-09-18T03:00:57;101064.27;;;15.64;73.53
77019;BME280;66044;53.142;17.962;2023-09-18T03:03:29;101056.27;;;15.63;73.72
77019;BME280;66044;53.142;17.962;2023-09-18T03:06:04;101052.66;;;15.60;73.63
77019;BME280;66044;53.142;17.962;2023-09-18T03:08:31;101054.66;;;15.57;73.92
77019;BME280;66044;53.142;17.962;2023-09-18T03:10:57;101051.04;;;15.54;73.90
77019;BME280;66044;53.142;17.962;2023-09-18T03:13:26;101047.75;;;15.51;74.11
77019;BME280;66044;53.142;17.962;2023-09-18T03:15:53;101045.06;;;15.45;74.21
77019;BME280;66044;53.142;17.962;2023-09-18T03:18:19;101045.09;;;15.44;74.27
77019;BME280;66044;53.142;17.962;2023-09-18T03:20:46;101044.15;;;15.40;74.29
77019;BME280;66044;53.142;17.962;2023-09-18T03:23:12;101039.45;;;15.35;74.33
77019;BME280;66044;53.142;17.962;2023-09-18T03:25:39;101032.30;;;15.30;74.21
77019;BME280;66044;53.142;17.962;2023-09-18T03:28:05;101026.33;;;15.23;74.39
77019;BME280;66044;53.142;17.962;2023-09-18T03:30:32;101020.61;;;15.18;74.71
77019;BME280;66044;53.142;17.962;2023-09-18T03:32:58;101017.29;;;15.15;74.69
77019;BME280;66044;53.142;17.962;2023-09-18T03:35:25;101016.65;;;15.11;74.79
77019;BME280;66044;53.142;17.962;2023-09-18T03:37:52;101017.21;;;15.08;75.01
77019;BME280;66044;53.142;17.962;2023-09-18T03:40:22;101012.91;;;15.07;75.38
77019;BME280;66044;53.142;17.962;2023-09-18T03:42:49;101005.56;;;15.04;75.58
77019;BME280;66044;53.142;17.962;2023-09-18T03:45:15;101007.88;;;15.07;75.72
77019;BME280;66044;53.142;17.962;2023-09-18T03:47:45;101009.21;;;15.07;75.78
77019;BME280;66044;53.142;17.962;2023-09-18T03:50:12;101007.90;;;15.07;76.05
77019;BME280;66044;53.142;17.962;2023-09-18T03:52:40;101005.42;;;15.09;76.30
77019;BME280;66044;53.142;17.962;2023-09-18T03:55:07;100999.64;;;15.11;76.48
77019;BME280;66044;53.142;17.962;2023-09-18T03:57:34;100997.00;;;15.14;76.56
77019;BME280;66044;53.142;17.962;2023-09-18T04:00:01;100994.80;;;15.15;76.77
77019;BME280;66044;53.142;17.962;2023-09-18T04:02:29;100990.15;;;15.18;76.85
77019;BME280;66044;53.142;17.962;2023-09-18T04:04:56;100991.81;;;15.20;76.80
77019;BME280;66044;53.142;17.962;2023-09-18T04:07:22;100985.42;;;15.21;76.66
77019;BME280;66044;53.142;17.962;2023-09-18T04:09:49;100986.45;;;15.22;76.71
77019;BME280;66044;53.142;17.962;2023-09-18T04:12:15;100983.34;;;15.24;76.67
77019;BME280;66044;53.142;17.962;2023-09-18T04:14:42;100979.92;;;15.26;76.75
77019;BME280;66044;53.142;17.962;2023-09-18T04:17:08;100975.39;;;15.27;76.90
77019;BME280;66044;53.142;17.962;2023-09-18T04:19:35;100974.60;;;15.30;76.79
77019;BME280;66044;53.142;17.962;2023-09-18T04:22:02;100972.51;;;15.32;76.95
77019;BME280;66044;53.142;17.962;2023-09-18T04:24:28;100977.02;;;15.34;77.09
77019;BME280;66044;53.142;17.962;2023-09-18T04:26:55;100978.44;;;15.35;76.79
77019;BME280;66044;53.142;17.962;2023-09-18T04:29:21;100976.74;;;15.36;76.74
77019;BME280;66044;53.142;17.962;2023-09-18T04:31:47;100974.23;;;15.37;76.68
77019;BME280;66044;53.142;17.962;2023-09-18T04:34:15;100975.55;;;15.40;76.63
77019;BME280;66044;53.142;17.962;2023-09-18T04:36:41;100976.05;;;15.42;76.87
77019;BME280;66044;53.142;17.962;2023-09-18T04:39:10;100970.14;;;15.44;76.90
77019;BME280;66044;53.142;17.962;2023-09-18T04:41:37;100970.66;;;15.46;76.88
77019;BME280;66044;53.142;17.962;2023-09-18T04:44:03;100975.59;;;15.48;77.24
77019;BME280;66044;53.142;17.962;2023-09-18T04:46:31;100975.77;;;15.52;77.26
77019;BME280;66044;53.142;17.962;2023-09-18T04:48:57;100972.66;;;15.57;77.35
77019;BME280;66044;53.142;17.962;2023-09-18T04:51:24;100968.62;;;15.63;77.41
77019;BME280;66044;53.142;17.962;2023-09-18T04:53:52;100969.08;;;15.70;77.29
77019;BME280;66044;53.142;17.962;2023-09-18T04:56:18;100969.15;;;15.76;77.17
77019;BME280;66044;53.142;17.962;2023-09-18T04:58:46;100968.78;;;15.84;77.04
77019;BME280;66044;53.142;17.962;2023-09-18T05:01:13;100963.67;;;15.91;76.99
77019;BME280;66044;53.142;17.962;2023-09-18T05:03:40;100962.23;;;15.97;76.78
77019;BME280;66044;53.142;17.962;2023-09-18T05:06:06;100965.20;;;16.02;76.53
77019;BME280;66044;53.142;17.962;2023-09-18T05:08:33;100965.92;;;16.06;76.27
77019;BME280;66044;53.142;17.962;2023-09-18T05:11:00;100966.16;;;16.10;76.30
77019;BME280;66044;53.142;17.962;2023-09-18T05:13:27;100959.94;;;16.16;76.09
77019;BME280;66044;53.142;17.962;2023-09-18T05:15:53;100957.88;;;16.22;76.06
77019;BME280;66044;53.142;17.962;2023-09-18T05:18:20;100962.42;;;16.32;75.86
77019;BME280;66044;53.142;17.962;2023-09-18T05:20:46;100964.50;;;16.42;75.89
77019;BME280;66044;53.142;17.962;2023-09-18T05:23:12;100964.02;;;16.54;75.80
77019;BME280;66044;53.142;17.962;2023-09-18T05:25:44;100964.45;;;16.67;75.70
77019;BME280;66044;53.142;17.962;2023-09-18T05:28:12;100966.59;;;16.82;75.42
77019;BME280;66044;53.142;17.962;2023-09-18T05:30:38;100964.10;;;16.98;75.25
77019;BME280;66044;53.142;17.962;2023-09-18T05:33:05;100963.85;;;17.16;74.94
77019;BME280;66044;53.142;17.962;2023-09-18T05:35:35;100965.48;;;17.35;74.64
77019;BME280;66044;53.142;17.962;2023-09-18T05:38:03;100968.16;;;17.53;74.28
77019;BME280;66044;53.142;17.962;2023-09-18T05:40:30;100962.02;;;17.82;73.80
77019;BME280;66044;53.142;17.962;2023-09-18T05:42:57;100967.13;;;18.56;72.55
77019;BME280;66044;53.142;17.962;2023-09-18T05:45:27;100972.19;;;20.29;69.83
77019;BME280;66044;53.142;17.962;2023-09-18T05:47:54;100974.55;;;21.93;66.52
77019;BME280;66044;53.142;17.962;2023-09-18T05:50:27;100978.12;;;23.59;63.87
77019;BME280;66044;53.142;17.962;2023-09-18T05:52:56;100976.20;;;25.07;60.53
77019;BME280;66044;53.142;17.962;2023-09-18T05:55:30;100971.97;;;26.09;56.43
77019;BME280;66044;53.142;17.962;2023-09-18T05:57:58;100975.05;;;27.10;53.68
77019;BME280;66044;53.142;17.962;2023-09-18T06:00:25;100974.25;;;27.98;51.03
77019;BME280;66044;53.142;17.962;2023-09-18T06:02:52;100979.44;;;28.56;48.14
77019;BME280;66044;53.142;17.962;2023-09-18T06:05:19;100983.02;;;28.88;46.72
77019;BME280;66044;53.142;17.962;2023-09-18T06:07:49;100980.33;;;29.70;45.00
77019;BME280;66044;53.142;17.962;2023-09-18T06:10:16;100980.34;;;30.30;43.44
77019;BME280;66044;53.142;17.962;2023-09-18T06:12:44;100975.77;;;31.08;42.61
77019;BME280;66044;53.142;17.962;2023-09-18T06:15:11;100974.49;;;32.13;41.54
77019;BME280;66044;53.142;17.962;2023-09-18T06:17:41;100971.86;;;33.20;39.79
77019;BME280;66044;53.142;17.962;2023-09-18T06:20:09;100971.52;;;34.30;38.56
77019;BME280;66044;53.142;17.962;2023-09-18T06:22:37;100969.44;;;35.13;34.81
77019;BME280;66044;53.142;17.962;2023-09-18T06:25:06;100965.71;;;35.67;34.51
77019;BME280;66044;53.142;17.962;2023-09-18T06:27:36;100966.21;;;35.90;32.09
77019;BME280;66044;53.142;17.962;2023-09-18T06:30:04;100969.69;;;35.25;31.44
77019;BME280;66044;53.142;17.962;2023-09-18T06:32:31;100972.06;;;34.76;31.42
77019;BME280;66044;53.142;17.962;2023-09-18T06:34:58;100969.12;;;34.49;32.01
77019;BME280;66044;53.142;17.962;2023-09-18T06:37:24;100964.98;;;34.87;31.59
77019;BME280;66044;53.142;17.962;2023-09-18T06:39:51;100961.31;;;35.37;31.24
77019;BME280;66044;53.142;17.962;2023-09-18T06:42:18;100960.88;;;36.09;31.45
77019;BME280;66044;53.142;17.962;2023-09-18T06:44:45;100960.52;;;36.99;29.84
77019;BME280;66044;53.142;17.962;2023-09-18T06:47:11;100962.52;;;37.78;29.26
77019;BME280;66044;53.142;17.962;2023-09-18T06:49:38;100959.09;;;38.39;28.09
77019;BME280;66044;53.142;17.962;2023-09-18T06:52:04;100958.73;;;38.33;26.99
77019;BME280;66044;53.142;17.962;2023-09-18T06:54:32;100958.19;;;38.09;27.13
77019;BME280;66044;53.142;17.962;2023-09-18T06:56:59;100956.28;;;38.68;27.69
77019;BME280;66044;53.142;17.962;2023-09-18T06:59:25;100947.12;;;39.77;26.67
77019;BME280;66044;53.142;17.962;2023-09-18T07:01:51;100951.91;;;40.42;25.78
77019;BME280;66044;53.142;17.962;2023-09-18T07:04:18;100950.37;;;41.00;25.27
77019;BME280;66044;53.142;17.962;2023-09-18T07:06:44;100952.77;;;41.48;24.59
77019;BME280;66044;53.142;17.962;2023-09-18T07:09:12;100954.73;;;42.01;23.93
77019;BME280;66044;53.142;17.962;2023-09-18T07:11:40;100958.39;;;42.16;23.03
77019;BME280;66044;53.142;17.962;2023-09-18T07:14:06;100958.04;;;42.22;22.26
77019;BME280;66044;53.142;17.962;2023-09-18T07:16:34;100954.23;;;42.10;22.36
77019;BME280;66044;53.142;17.962;2023-09-18T07:19:00;100952.95;;;42.69;22.70
77019;BME280;66044;53.142;17.962;2023-09-18T07:21:30;100953.13;;;43.47;22.14
77019;BME280;66044;53.142;17.962;2023-09-18T07:23:57;100948.56;;;44.32;21.15
77019;BME280;66044;53.142;17.962;2023-09-18T07:26:23;100942.51;;;45.06;20.87
77019;BME280;66044;53.142;17.962;2023-09-18T07:28:49;100943.93;;;45.80;20.17
77019;BME280;66044;53.142;17.962;2023-09-18T07:31:16;100943.01;;;46.48;20.16
77019;BME280;66044;53.142;17.962;2023-09-18T07:33:42;100946.36;;;46.75;18.73
77019;BME280;66044;53.142;17.962;2023-09-18T07:36:10;100944.52;;;47.01;18.68
77019;BME280;66044;53.142;17.962;2023-09-18T07:38:38;100942.05;;;47.65;18.42
77019;BME280;66044;53.142;17.962;2023-09-18T07:41:04;100941.31;;;48.28;17.78
77019;BME280;66044;53.142;17.962;2023-09-18T07:43:31;100933.14;;;48.41;17.02
77019;BME280;66044;53.142;17.962;2023-09-18T07:45:57;100929.16;;;48.38;17.09
77019;BME280;66044;53.142;17.962;2023-09-18T07:48:26;100925.50;;;48.73;17.20
77019;BME280;66044;53.142;17.962;2023-09-18T07:50:52;100927.83;;;49.26;16.68
77019;BME280;66044;53.142;17.962;2023-09-18T07:53:20;100929.24;;;49.68;16.29
77019;BME280;66044;53.142;17.962;2023-09-18T07:55:54;100924.59;;;49.96;16.15
77019;BME280;66044;53.142;17.962;2023-09-18T07:58:21;100924.60;;;50.36;15.98
77019;BME280;66044;53.142;17.962;2023-09-18T08:00:48;100925.73;;;50.80;15.36
77019;BME280;66044;53.142;17.962;2023-09-18T08:03:14;100926.81;;;50.98;15.17
77019;BME280;66044;53.142;17.962;2023-09-18T08:05:41;100923.41;;;51.07;14.93
77019;BME280;66044;53.142;17.962;2023-09-18T08:08:09;100927.15;;;51.05;14.72
77019;BME280;66044;53.142;17.962;2023-09-18T08:10:39;100926.27;;;50.99;14.65
77019;BME280;66044;53.142;17.962;2023-09-18T08:13:06;100921.14;;;51.11;14.73
77019;BME280;66044;53.142;17.962;2023-09-18T08:15:33;100913.47;;;51.30;14.64
77019;BME280;66044;53.142;17.962;2023-09-18T08:17:59;100906.23;;;50.99;14.26
77019;BME280;66044;53.142;17.962;2023-09-18T08:20:26;100899.77;;;50.54;14.89
77019;BME280;66044;53.142;17.962;2023-09-18T08:22:52;100892.69;;;50.35;15.12
77019;BME280;66044;53.142;17.962;2023-09-18T08:25:19;100891.58;;;50.24;15.00
77019;BME280;66044;53.142;17.962;2023-09-18T08:27:45;100893.48;;;49.95;15.09
77019;BME280;66044;53.142;17.962;2023-09-18T08:30:14;100889.59;;;49.70;15.60
77019;BME280;66044;53.142;17.962;2023-09-18T08:32:41;100886.03;;;49.22;15.28
77019;BME280;66044;53.142;17.962;2023-09-18T08:35:09;100877.95;;;48.37;15.67
77019;BME280;66044;53.142;17.962;2023-09-18T08:37:35;100873.90;;;47.56;16.01
77019;BME280;66044;53.142;17.962;2023-09-18T08:40:02;100866.76;;;46.16;16.93
77019;BME280;66044;53.142;17.962;2023-09-18T08:42:38;100852.06;;;44.36;18.45
77019;BME280;66044;53.142;17.962;2023-09-18T08:45:09;100846.52;;;42.45;19.89
77019;BME280;66044;53.142;17.962;2023-09-18T08:47:40;100835.63;;;40.50;21.43
77019;BME280;66044;53.142;17.962;2023-09-18T08:50:08;100824.02;;;38.57;23.04
77019;BME280;66044;53.142;17.962;2023-09-18T08:52:36;100816.98;;;36.95;25.22
77019;BME280;66044;53.142;17.962;2023-09-18T08:55:04;100808.89;;;35.60;26.70
77019;BME280;66044;53.142;17.962;2023-09-18T08:57:32;100805.29;;;34.70;28.27
77019;BME280;66044;53.142;17.962;2023-09-18T08:59:59;100799.85;;;33.77;29.53
77019;BME280;66044;53.142;17.962;2023-09-18T09:02:33;100790.90;;;32.85;30.88
77019;BME280;66044;53.142;17.962;2023-09-18T09:04:59;100782.16;;;32.19;31.85
77019;BME280;66044;53.142;17.962;2023-09-18T09:07:26;100779.66;;;31.66;32.63
77019;BME280;66044;53.142;17.962;2023-09-18T09:09:55;100773.25;;;31.15;33.82
77019;BME280;66044;53.142;17.962;2023-09-18T09:12:47;100775.38;;;30.56;35.00
77019;BME280;66044;53.142;17.962;2023-09-18T09:15:15;100777.59;;;30.09;35.98
77019;BME280;66044;53.142;17.962;2023-09-18T09:17:43;100774.48;;;29.79;36.47
77019;BME280;66044;53.142;17.962;2023-09-18T09:20:12;100766.17;;;29.52;37.00
77019;BME280;66044;53.142;17.962;2023-09-18T09:22:40;100765.38;;;29.33;37.55
77019;BME280;66044;53.142;17.962;2023-09-18T09:25:27;100758.95;;;28.96;38.61
77019;BME280;66044;53.142;17.962;2023-09-18T09:27:55;100751.90;;;28.53;39.90
77019;BME280;66044;53.142;17.962;2023-09-18T09:30:25;100748.40;;;28.24;39.99
77019;BME280;66044;53.142;17.962;2023-09-18T09:32:56;100741.89;;;28.14;40.43
77019;BME280;66044;53.142;17.962;2023-09-18T09:37:56;100730.70;;;28.05;40.76
77019;BME280;66044;53.142;17.962;2023-09-18T09:40:25;100718.74;;;28.04;40.86
77019;BME280;66044;53.142;17.962;2023-09-18T09:42:53;100718.09;;;28.08;41.01
77019;BME280;66044;53.142;17.962;2023-09-18T09:45:23;100711.85;;;28.03;41.26
77019;BME280;66044;53.142;17.962;2023-09-18T09:47:53;100708.20;;;27.99;41.47
77019;BME280;66044;53.142;17.962;2023-09-18T09:50:20;100706.39;;;27.96;41.52
77019;BME280;66044;53.142;17.962;2023-09-18T09:52:50;100710.09;;;27.89;41.81
77019;BME280;66044;53.142;17.962;2023-09-18T09:55:31;100699.76;;;27.77;41.98
77019;BME280;66044;53.142;17.962;2023-09-18T09:58:01;100698.59;;;27.76;41.76
77019;BME280;66044;53.142;17.962;2023-09-18T10:00:43;100688.10;;;27.77;41.67
77019;BME280;66044;53.142;17.962;2023-09-18T10:03:13;100680.61;;;27.79;41.86
77019;BME280;66044;53.142;17.962;2023-09-18T10:05:42;100678.69;;;27.77;41.74
77019;BME280;66044;53.142;17.962;2023-09-18T10:08:16;100676.20;;;27.71;41.45
77019;BME280;66044;53.142;17.962;2023-09-18T10:13:20;100672.92;;;27.67;41.59
77019;BME280;66044;53.142;17.962;2023-09-18T10:15:51;100674.69;;;27.68;41.71
77019;BME280;66044;53.142;17.962;2023-09-18T10:18:28;100677.77;;;27.68;41.68
77019;BME280;66044;53.142;17.962;2023-09-18T10:26:27;100666.45;;;27.58;41.75
77019;BME280;66044;53.142;17.962;2023-09-18T10:29:00;100667.70;;;27.49;41.99
77019;BME280;66044;53.142;17.962;2023-09-18T10:31:29;100664.40;;;27.44;42.00
77019;BME280;66044;53.142;17.962;2023-09-18T10:33:58;100659.95;;;27.45;42.16
77019;BME280;66044;53.142;17.962;2023-09-18T10:36:26;100663.14;;;27.50;42.31
77019;BME280;66044;53.142;17.962;2023-09-18T10:38:55;100655.11;;;27.54;42.20
77019;BME280;66044;53.142;17.962;2023-09-18T10:41:23;100660.13;;;27.53;42.26
77019;BME280;66044;53.142;17.962;2023-09-18T10:43:53;100654.73;;;27.38;42.32
77019;BME280;66044;53.142;17.962;2023-09-18T10:46:20;100654.05;;;27.31;42.46
77019;BME280;66044;53.142;17.962;2023-09-18T10:48:47;100647.61;;;27.30;42.14
77019;BME280;66044;53.142;17.962;2023-09-18T10:51:20;100645.48;;;27.28;42.39
77019;BME280;66044;53.142;17.962;2023-09-18T10:53:48;100647.83;;;27.29;42.67
77019;BME280;66044;53.142;17.962;2023-09-18T10:56:15;100643.23;;;27.28;42.36
77019;BME280;66044;53.142;17.962;2023-09-18T10:58:43;100642.24;;;27.26;42.31
77019;BME280;66044;53.142;17.962;2023-09-18T11:01:12;100643.05;;;27.23;42.24
77019;BME280;66044;53.142;17.962;2023-09-18T11:03:39;100638.48;;;27.20;42.34
77019;BME280;66044;53.142;17.962;2023-09-18T11:06:10;100637.13;;;27.21;42.48
77019;BME280;66044;53.142;17.962;2023-09-18T11:08:45;100635.38;;;27.21;42.21
77019;BME280;66044;53.142;17.962;2023-09-18T11:11:12;100637.42;;;27.24;42.34
77019;BME280;66044;53.142;17.962;2023-09-18T11:13:42;100641.14;;;27.26;42.33
77019;BME280;66044;53.142;17.962;2023-09-18T11:16:32;100641.61;;;27.23;41.95
77019;BME280;66044;53.142;17.962;2023-09-18T11:21:31;100620.19;;;27.13;41.59
77019;BME280;66044;53.142;17.962;2023-09-18T11:23:58;100623.55;;;27.16;41.71
77019;BME280;66044;53.142;17.962;2023-09-18T11:26:29;100622.28;;;27.16;41.56
77019;BME280;66044;53.142;17.962;2023-09-18T11:29:03;100619.07;;;27.14;41.96
77019;BME280;66044;53.142;17.962;2023-09-18T11:34:23;100614.86;;;27.17;41.86
77019;BME280;66044;53.142;17.962;2023-09-18T11:36:50;100606.46;;;27.18;41.75
77019;BME280;66044;53.142;17.962;2023-09-18T11:39:38;100598.69;;;27.22;41.50
77019;BME280;66044;53.142;17.962;2023-09-18T11:42:13;100598.01;;;27.24;41.35
77019;BME280;66044;53.142;17.962;2023-09-18T11:44:40;100595.92;;;27.20;41.12
77019;BME280;66044;53.142;17.962;2023-09-18T11:47:17;100593.73;;;27.17;41.13
77019;BME280;66044;53.142;17.962;2023-09-18T11:49:47;100590.11;;;27.17;41.09
77019;BME280;66044;53.142;17.962;2023-09-18T11:52:22;100587.05;;;27.16;41.01
77019;BME280;66044;53.142;17.962;2023-09-18T11:54:54;100585.23;;;27.17;41.09
77019;BME280;66044;53.142;17.962;2023-09-18T11:57:23;100584.09;;;27.20;40.38
77019;BME280;66044;53.142;17.962;2023-09-18T11:59:50;100586.31;;;27.25;39.03
77019;BME280;66044;53.142;17.962;2023-09-18T12:02:34;100580.34;;;27.27;37.85
77019;BME280;66044;53.142;17.962;2023-09-18T12:05:14;100579.04;;;27.30;37.32
77019;BME280;66044;53.142;17.962;2023-09-18T12:07:46;100573.39;;;27.32;37.77
77019;BME280;66044;53.142;17.962;2023-09-18T12:10:16;100572.73;;;27.33;38.10
77019;BME280;66044;53.142;17.962;2023-09-18T12:12:44;100573.36;;;27.33;38.43
77019;BME280;66044;53.142;17.962;2023-09-18T12:15:11;100576.98;;;27.33;38.68
77019;BME280;66044;53.142;17.962;2023-09-18T12:17:38;100573.40;;;27.32;38.82
77019;BME280;66044;53.142;17.962;2023-09-18T12:20:18;100575.00;;;27.31;39.13
77019;BME280;66044;53.142;17.962;2023-09-18T12:22:50;100573.27;;;27.36;39.53
77019;BME280;66044;53.142;17.962;2023-09-18T12:25:17;100560.56;;;27.39;39.43
77019;BME280;66044;53.142;17.962;2023-09-18T12:27:56;100559.42;;;27.43;39.57
77019;BME280;66044;53.142;17.962;2023-09-18T12:30:26;100559.23;;;27.49;39.64
77019;BME280;66044;53.142;17.962;2023-09-18T12:32:52;100563.69;;;27.52;39.86
77019;BME280;66044;53.142;17.962;2023-09-18T12:35:19;100561.45;;;27.54;39.81
77019;BME280;66044;53.142;17.962;2023-09-18T12:37:45;100559.97;;;27.58;39.89
77019;BME280;66044;53.142;17.962;2023-09-18T12:40:27;100553.46;;;27.61;39.69
77019;BME280;66044;53.142;17.962;2023-09-18T12:42:57;100551.35;;;27.64;39.82
77019;BME280;66044;53.142;17.962;2023-09-18T12:45:29;100542.79;;;27.67;39.91
77019;BME280;66044;53.142;17.962;2023-09-18T12:47:57;100541.64;;;27.71;39.80
77019;BME280;66044;53.142;17.962;2023-09-18T12:50:25;100542.14;;;27.72;39.72
77019;BME280;66044;53.142;17.962;2023-09-18T12:52:52;100539.80;;;27.76;39.85
77019;BME280;66044;53.142;17.962;2023-09-18T12:57:51;100528.51;;;27.82;39.46
77019;BME280;66044;53.142;17.962;2023-09-18T13:00:19;100527.70;;;27.83;39.42
77019;BME280;66044;53.142;17.962;2023-09-18T13:02:49;100529.55;;;27.83;39.38
77019;BME280;66044;53.142;17.962;2023-09-18T13:05:23;100526.21;;;27.84;39.13
77019;BME280;66044;53.142;17.962;2023-09-18T13:07:53;100521.58;;;27.81;39.16